Time;durP1;ratioP1;P1;durP2;ratioP2;P2;SDS_P1;SDS_P2;PMS_P1;PMS_P2;Temp;Humidity;BMP_temperature;BMP_pressure;BME280_temperature;BME280_humidity;BME280_pressure;Samples;Min_cycle;Max_cycle;Signal;HPM_P1;HPM_P2
2022/12/17 13:07:21;;;;;;;;;34.00;28.25;;;;;3.25;61.12;101683.16;6030575;23;45561;-73
2022/12/17 13:09:51;;;;;;;;;32.75;27.50;;;;;3.20;61.12;101682.41;6029978;23;46749;-75
2022/12/17 13:12:22;;;;;;;;;25.50;20.75;;;;;3.20;60.83;101682.41;6037104;23;47135;-74
2022/12/17 13:14:55;;;;;;;;;39.00;30.75;;;;;3.13;60.98;101675.66;6123056;23;45761;-73
2022/12/17 13:17:30;;;;;;;;;28.00;25.25;;;;;3.14;61.00;101677.38;6149604;23;45519;-74
2022/12/17 13:19:55;;;;;;;;;45.00;26.75;;;;;3.17;60.97;101679.91;6148642;23;47375;-73
2022/12/17 13:22:23;;;;;;;;;34.00;29.00;;;;;3.16;61.24;101678.19;6149446;23;47117;-73
2022/12/17 13:24:52;;;;;;;;;25.00;19.75;;;;;3.18;61.15;101684.22;6149197;23;45569;-74
2022/12/17 13:27:33;;;;;;;;;23.75;22.50;;;;;3.19;60.97;101682.44;6149933;23;45545;-74
2022/12/17 13:30:17;;;;;;;;;39.00;28.00;;;;;3.19;61.05;101670.34;6122386;23;47430;-73
2022/12/17 13:32:45;;;;;;;;;40.50;29.75;;;;;3.20;61.16;101679.81;6149500;23;45486;-74
2022/12/17 13:35:16;;;;;;;;;48.75;42.75;;;;;3.20;61.47;101679.81;6149261;23;45687;-71
2022/12/17 13:38:08;;;;;;;;;61.25;46.75;;;;;3.23;61.43;101671.16;6149420;23;45469;-73
2022/12/17 13:40:46;;;;;;;;;47.75;31.25;;;;;3.26;61.25;101677.09;6149270;23;45514;-73
2022/12/17 13:43:23;;;;;;;;;41.25;30.75;;;;;3.30;61.70;101676.13;6149290;23;46283;-72
2022/12/17 13:45:51;;;;;;;;;45.25;31.75;;;;;3.33;61.32;101680.41;6149078;23;45739;-73
2022/12/17 13:48:22;;;;;;;;;43.25;35.75;;;;;3.35;61.20;101678.59;6149382;23;45736;-73
2022/12/17 13:51:00;;;;;;;;;42.75;30.50;;;;;3.33;61.12;101678.66;6149300;23;47289;-73
2022/12/17 13:53:27;;;;;;;;;49.00;32.00;;;;;3.32;61.13;101660.56;6149973;23;45820;-73
2022/12/17 13:55:55;;;;;;;;;44.25;35.00;;;;;3.32;61.07;101671.78;6151029;23;45522;-71
2022/12/17 13:58:30;;;;;;;;;41.75;32.00;;;;;3.38;60.66;101670.78;6150326;23;45581;-72
2022/12/17 14:01:04;;;;;;;;;37.50;30.75;;;;;3.38;60.93;101675.97;6149087;23;46304;-71
2022/12/17 14:03:30;;;;;;;;;39.00;29.00;;;;;3.32;60.86;101664.00;6148132;23;46126;-73
2022/12/17 14:05:56;;;;;;;;;37.50;32.75;;;;;3.34;61.06;101659.66;6149880;23;45529;-73
2022/12/17 14:08:27;;;;;;;;;33.25;28.50;;;;;3.40;61.08;101678.50;6150587;23;45439;-73
2022/12/17 14:12:20;;;;;;;;;32.25;28.75;;;;;3.38;60.67;101669.03;6125299;23;45498;-72
2022/12/17 14:13:42;;;;;;;;;46.75;28.25;;;;;3.43;60.66;101687.06;6149822;23;45404;-73
2022/12/17 14:16:07;;;;;;;;;34.50;32.50;;;;;3.42;60.77;101669.81;6148821;23;45418;-73
2022/12/17 14:18:33;;;;;;;;;35.75;29.25;;;;;3.47;60.48;101674.88;6149586;23;45594;-73
2022/12/17 14:20:59;;;;;;;;;45.00;33.75;;;;;3.43;60.28;101683.59;6150822;23;46556;-73
2022/12/17 14:23:30;;;;;;;;;37.00;26.50;;;;;3.44;60.60;101681.00;6150114;23;45931;-73
2022/12/17 14:25:56;;;;;;;;;45.00;33.25;;;;;3.42;60.38;101682.75;6151526;23;45656;-73
2022/12/17 14:28:33;;;;;;;;;40.75;35.25;;;;;3.42;60.53;101687.09;6150043;23;45661;-73
2022/12/17 14:31:15;;;;;;;;;39.25;32.75;;;;;3.43;60.70;101688.78;6150802;23;45547;-73
2022/12/17 14:33:42;;;;;;;;;46.75;30.75;;;;;3.33;60.64;101665.72;6149702;23;46258;-72
2022/12/17 14:36:16;;;;;;;;;51.25;41.50;;;;;3.42;60.36;101687.09;6150344;23;45700;-71
2022/12/17 14:39:10;;;;;;;;;93.75;70.75;;;;;3.44;60.99;101686.16;6150774;23;45757;-71
2022/12/17 14:44:26;;;;;;;;;35.00;31.25;;;;;3.46;60.94;101686.09;6150230;23;45437;-73
2022/12/17 14:47:09;;;;;;;;;40.75;29.75;;;;;3.43;60.64;101687.06;6123063;23;45551;-73
2022/12/17 14:49:36;;;;;;;;;31.00;25.75;;;;;3.48;60.49;101692.97;6148643;23;45563;-73
2022/12/17 14:52:12;;;;;;;;;30.00;21.00;;;;;3.46;59.99;101691.28;6148914;23;47444;-73
2022/12/17 14:54:44;;;;;;;;;36.00;26.50;;;;;3.41;60.65;101675.88;6149756;23;45994;-72
2022/12/17 14:57:19;;;;;;;;;32.50;28.00;;;;;3.42;60.01;101662.03;6148918;23;45756;-71
2022/12/17 15:03:13;;;;;;;;;31.50;29.00;;;;;3.43;60.06;101668.91;6149389;23;45427;-73
2022/12/17 15:05:39;;;;;;;;;26.25;24.75;;;;;3.44;59.72;101677.53;6148776;23;47293;-71
2022/12/17 15:08:04;;;;;;;;;30.75;23.50;;;;;3.43;59.85;101683.59;6149280;23;45726;-72
2022/12/17 15:10:30;;;;;;;;;27.00;25.00;;;;;3.39;59.62;101672.47;6149461;23;45753;-71
2022/12/17 15:12:56;;;;;;;;;27.50;24.50;;;;;3.38;59.52;101673.38;6149031;23;45472;-72
2022/12/17 15:18:43;;;;;;;;;32.50;22.25;;;;;3.33;59.44;101678.66;6149102;23;45857;-73
2022/12/17 15:21:10;;;;;;;;;31.00;23.25;;;;;3.31;59.50;101683.00;6149546;23;45726;-74
2022/12/17 15:23:40;;;;;;;;;28.50;22.75;;;;;3.32;59.25;101676.09;6149145;23;45495;-71
2022/12/17 15:26:05;;;;;;;;;38.50;26.75;;;;;3.28;59.38;101669.31;6148009;23;46126;-72
2022/12/17 15:28:30;;;;;;;;;37.25;28.50;;;;;3.27;59.63;101677.94;6148356;23;45435;-71
2022/12/17 15:34:17;;;;;;;;;27.75;24.50;;;;;3.19;59.43;101665.16;6149072;23;45971;-73
2022/12/17 15:36:44;;;;;;;;;23.75;20.75;;;;;3.20;59.16;101685.00;6148560;23;46535;-73
2022/12/17 15:39:10;;;;;;;;;37.25;26.75;;;;;3.16;59.14;101687.72;6148887;23;45736;-74
2022/12/17 15:44:19;;;;;;;;;22.50;22.25;;;;;3.07;59.18;101695.69;6151226;23;45975;-73
2022/12/17 15:50:08;;;;;;;;;30.75;28.00;;;;;2.98;59.07;101691.56;6148578;23;45499;-73
2022/12/17 15:52:34;;;;;;;;;34.25;25.00;;;;;2.99;59.26;101700.19;6150308;23;45562;-72
2022/12/17 15:54:59;;;;;;;;;32.75;22.25;;;;;2.90;59.13;101689.16;6149981;23;46563;-75
2022/12/17 15:57:25;;;;;;;;;33.75;25.50;;;;;2.92;59.59;101696.88;6151163;23;45765;-73
2022/12/17 15:59:50;;;;;;;;;33.00;28.50;;;;;2.94;59.23;101703.72;6150778;23;45437;-74
2022/12/17 16:05:37;;;;;;;;;29.25;25.25;;;;;2.88;59.18;101705.59;6150148;23;46107;-73
2022/12/17 16:08:02;;;;;;;;;29.50;25.00;;;;;2.87;59.29;101715.09;6149823;23;46142;-73
2022/12/17 16:10:28;;;;;;;;;26.50;23.50;;;;;2.87;58.99;101714.22;6150225;23;46133;-75
2022/12/17 16:12:53;;;;;;;;;36.50;29.00;;;;;2.84;59.13;101709.13;6149695;23;45736;-74
2022/12/17 16:15:19;;;;;;;;;35.50;31.00;;;;;2.77;59.15;101703.22;6150053;23;46544;-73
2022/12/17 16:17:44;;;;;;;;;31.00;23.33;;;;;2.79;59.23;101710.97;6149387;23;46852;-74
2022/12/17 16:20:10;;;;;;;;;37.00;27.25;;;;;2.72;59.53;101702.47;6150042;23;45537;-74
2022/12/17 16:22:36;;;;;;;;;38.75;28.00;;;;;2.71;59.24;101705.94;6149726;23;45486;-75
2022/12/17 16:25:03;;;;;;;;;31.00;22.50;;;;;2.77;59.44;101715.31;6148885;23;47291;-74
2022/12/17 16:27:29;;;;;;;;;30.25;26.00;;;;;2.72;59.53;101701.63;6149714;23;46103;-75
2022/12/17 16:29:54;;;;;;;;;34.25;29.00;;;;;2.73;59.26;101699.00;6149382;23;45372;-73
2022/12/17 16:32:19;;;;;;;;;29.50;25.50;;;;;2.70;59.13;101699.06;6149672;23;45437;-74
2022/12/17 16:34:45;;;;;;;;;26.00;23.50;;;;;2.68;59.47;101698.25;6150118;23;46581;-74
2022/12/17 16:37:11;;;;;;;;;34.75;26.75;;;;;2.64;59.22;101696.63;6149774;23;45470;-75
2022/12/17 16:39:36;;;;;;;;;36.25;26.75;;;;;2.60;59.36;101704.47;6149256;23;45392;-75
2022/12/17 16:42:02;;;;;;;;;13.50;12.50;;;;;2.59;59.37;101706.22;6149339;23;45819;-73
2022/12/17 16:44:27;;;;;;;;;33.25;24.50;;;;;2.62;59.57;101718.22;6149189;23;47199;-73
2022/12/17 16:46:52;;;;;;;;;32.75;27.00;;;;;2.60;59.41;101713.06;6149023;23;45917;-72
2022/12/17 16:49:20;;;;;;;;;32.00;22.50;;;;;2.59;59.43;101710.53;6149502;23;45494;-73
2022/12/17 16:51:49;;;;;;;;;31.00;24.25;;;;;2.58;59.36;101703.66;6149887;23;45719;-73
2022/12/17 16:54:17;;;;;;;;;27.75;23.00;;;;;2.57;59.58;101695.03;6150229;23;46563;-74
2022/12/17 16:56:44;;;;;;;;;29.50;25.00;;;;;2.54;59.16;101683.00;6149324;23;46807;-75
2022/12/17 16:59:11;;;;;;;;;30.50;26.50;;;;;2.45;59.63;101685.78;6149157;23;45830;-73
2022/12/17 17:01:38;;;;;;;;;39.25;28.75;;;;;2.50;59.15;101701.22;6149372;23;45636;-74
2022/12/17 17:04:06;;;;;;;;;39.25;29.25;;;;;2.44;59.41;101693.56;6148750;23;47720;-74
2022/12/17 17:06:36;;;;;;;;;36.00;26.25;;;;;2.46;59.93;101697.84;6148901;23;46580;-74
2022/12/17 17:09:03;;;;;;;;;31.25;28.00;;;;;2.46;59.34;101707.34;6149052;23;45605;-73
2022/12/17 17:11:29;;;;;;;;;35.00;26.00;;;;;2.41;59.81;101712.63;6150066;23;45852;-74
2022/12/17 17:13:55;;;;;;;;;31.50;29.50;;;;;2.39;59.28;101705.75;6149915;23;46595;-73
2022/12/17 17:16:23;;;;;;;;;26.50;20.25;;;;;2.41;59.23;101694.50;6149643;23;45541;-75
2022/12/17 17:22:11;;;;;;;;;26.00;21.25;;;;;2.38;59.38;101704.91;6150963;23;45661;-73
2022/12/17 17:24:36;;;;;;;;;33.50;24.75;;;;;2.35;59.27;101712.72;6151169;23;45501;-73
2022/12/17 17:27:02;;;;;;;;;27.00;22.25;;;;;2.35;59.48;101701.53;6148762;23;47200;-74
2022/12/17 17:29:27;;;;;;;;;32.00;25.00;;;;;2.32;59.62;101691.25;6149303;23;45579;-73
2022/12/17 17:31:52;;;;;;;;;30.00;26.00;;;;;2.30;59.46;101698.19;6149217;23;45515;-74
2022/12/17 17:34:18;;;;;;;;;32.25;25.50;;;;;2.34;59.03;101715.34;6148955;23;48780;-73
2022/12/17 17:36:43;;;;;;;;;26.50;22.00;;;;;2.28;59.20;101713.72;6149549;23;45628;-74
2022/12/17 17:39:08;;;;;;;;;47.50;36.50;;;;;2.32;59.19;101719.69;6148674;23;45688;-74
2022/12/17 17:41:34;;;;;;;;;32.00;25.50;;;;;2.29;59.81;101730.94;6148953;23;45679;-74
2022/12/17 17:44:05;;;;;;;;;32.00;30.00;;;;;2.28;58.88;101729.22;6148815;23;47219;-74
2022/12/17 17:46:32;;;;;;;;;32.00;29.00;;;;;2.27;59.37;101737.84;6148690;23;46131;-73
2022/12/17 17:52:19;;;;;;;;;30.25;26.50;;;;;2.22;59.87;101729.34;6149390;23;45360;-74
2022/12/17 17:54:46;;;;;;;;;33.75;30.00;;;;;2.08;60.13;101696.00;6148834;23;47096;-73
2022/12/17 17:57:11;;;;;;;;;37.50;29.50;;;;;2.16;59.85;101716.53;6149281;23;46045;-72
2022/12/17 17:59:38;;;;;;;;;33.50;28.50;;;;;2.16;60.13;101716.53;6148291;23;45538;-73
2022/12/17 18:02:03;;;;;;;;;34.25;27.25;;;;;2.13;59.93;101708.84;6148832;23;45851;-73
2022/12/17 18:04:30;;;;;;;;;33.00;28.00;;;;;2.12;59.80;101712.31;6148380;23;45478;-73
2022/12/17 18:06:55;;;;;;;;;34.25;22.50;;;;;2.10;60.28;101707.19;6147392;23;46376;-72
2022/12/17 18:09:20;;;;;;;;;30.00;25.00;;;;;2.09;59.79;101714.97;6149628;23;45666;-72
2022/12/17 18:11:46;;;;;;;;;31.25;23.00;;;;;2.08;59.67;101708.94;6149179;23;45472;-74
2022/12/17 18:14:12;;;;;;;;;40.25;30.75;;;;;2.08;59.75;101703.75;6148593;23;46236;-72
2022/12/17 18:16:46;;;;;;;;;39.50;32.00;;;;;2.05;60.43;101683.13;6147997;23;46042;-73
2022/12/17 18:22:33;;;;;;;;;46.50;41.00;;;;;2.11;60.01;101695.94;6149794;23;45520;-73
2022/12/17 18:24:59;;;;;;;;;33.75;28.50;;;;;2.10;60.36;101707.19;6150289;23;45531;-73
2022/12/17 18:27:24;;;;;;;;;41.50;34.00;;;;;2.09;60.45;101714.97;6150299;23;46195;-74
2022/12/17 18:29:49;;;;;;;;;32.75;27.25;;;;;2.12;60.27;101717.47;6148832;23;45615;-72
2022/12/17 18:32:15;;;;;;;;;39.67;36.33;;;;;2.10;60.53;101709.78;6149831;23;45826;-71
2022/12/17 18:38:02;;;;;;;;;41.00;33.75;;;;;2.02;60.96;101695.25;6148720;23;45769;-73
2022/12/17 18:40:27;;;;;;;;;48.25;37.50;;;;;2.02;60.76;101700.44;6149980;23;45672;-74
2022/12/17 18:45:37;;;;;;;;;50.25;39.00;;;;;2.02;60.74;101726.28;6149913;23;46014;-72
2022/12/17 18:48:03;;;;;;;;;38.50;25.50;;;;;1.98;61.12;101722.06;6149474;23;45458;-71
2022/12/17 18:50:28;;;;;;;;;39.25;33.50;;;;;1.97;61.17;101733.25;6149569;23;45694;-73
2022/12/17 18:52:54;;;;;;;;;44.75;35.00;;;;;1.95;61.26;101737.59;6149544;23;45744;-72
2022/12/17 18:55:19;;;;;;;;;44.00;39.50;;;;;1.85;60.78;101725.72;6148360;23;46277;-72
2022/12/17 18:57:44;;;;;;;;;44.00;34.75;;;;;1.77;60.95;101719.84;6148212;23;46095;-73
2022/12/17 19:00:11;;;;;;;;;41.00;35.25;;;;;1.92;60.93;101746.25;6149119;23;45658;-72
2022/12/17 19:02:36;;;;;;;;;48.75;38.00;;;;;1.92;60.83;101748.84;6149731;23;45908;-72
2022/12/17 19:08:23;;;;;;;;;42.50;34.00;;;;;1.84;61.43;101737.78;6148334;23;46210;-72
2022/12/17 19:10:55;;;;;;;;;32.00;28.50;;;;;1.84;61.09;101739.50;6148050;23;45620;-72
2022/12/17 19:13:20;;;;;;;;;47.75;38.50;;;;;1.83;61.36;101749.00;6148047;23;45506;-72
2022/12/17 19:15:45;;;;;;;;;43.25;36.25;;;;;1.81;61.14;101743.00;6147743;23;46844;-72
2022/12/17 19:18:11;;;;;;;;;38.25;31.00;;;;;1.78;61.47;101729.31;6148028;23;46917;-73
2022/12/17 19:20:36;;;;;;;;;40.25;35.50;;;;;1.76;61.46;101738.78;6147801;23;45324;-71
2022/12/17 19:23:02;;;;;;;;;48.00;35.33;;;;;1.73;60.59;101744.84;6122286;23;45603;-72
2022/12/17 19:25:27;;;;;;;;;34.25;30.25;;;;;1.70;60.52;101747.50;6147791;23;46212;-72
2022/12/17 19:27:52;;;;;;;;;48.00;33.00;;;;;1.66;61.20;101740.69;6146998;23;46624;-73
2022/12/17 19:30:18;;;;;;;;;36.00;32.50;;;;;1.59;60.56;101731.31;6148169;23;45614;-71
2022/12/17 19:32:43;;;;;;;;;45.75;39.00;;;;;1.59;61.19;101729.59;6148991;23;45626;-71
2022/12/17 19:35:09;;;;;;;;;43.00;37.00;;;;;1.50;60.59;101727.16;6148017;23;47528;-73
2022/12/17 19:37:34;;;;;;;;;47.75;39.00;;;;;1.55;60.97;101740.84;6121105;23;46040;-73
2022/12/17 19:39:59;;;;;;;;;42.25;36.75;;;;;1.54;60.93;101738.28;6148040;23;45796;-71
2022/12/17 19:42:26;;;;;;;;;39.75;34.00;;;;;1.52;61.29;101735.72;6148226;23;45709;-72
2022/12/17 19:44:53;;;;;;;;;41.50;35.75;;;;;1.47;60.81;101726.34;6148475;23;45537;-74
2022/12/17 19:47:18;;;;;;;;;49.50;39.50;;;;;1.48;60.73;101736.66;6147188;23;46112;-71
2022/12/17 19:49:44;;;;;;;;;3.00;3.00;;;;;1.44;61.09;101736.72;6147379;23;45620;-73
2022/12/17 19:52:09;;;;;;;;;76.00;63.00;;;;;1.38;61.01;101727.34;6149195;23;45757;-73
2022/12/17 19:54:34;;;;;;;;;64.33;52.00;;;;;1.30;61.01;101715.44;6148053;23;46807;-71
2022/12/17 19:57:00;;;;;;;;;57.67;46.33;;;;;1.38;61.55;101721.34;6148032;23;46029;-72
2022/12/17 19:59:25;;;;;;;;;49.00;41.50;;;;;1.34;61.71;101723.13;6147437;23;45447;-71
2022/12/17 20:01:50;;;;;;;;;44.50;39.25;;;;;1.32;60.74;101735.19;6148008;23;45822;-73
2022/12/17 20:04:16;;;;;;;;;46.25;38.50;;;;;1.32;60.98;101742.06;6149827;23;46586;-72
2022/12/17 20:06:43;;;;;;;;;50.50;33.75;;;;;1.28;60.75;101756.75;6148932;23;46077;-74
2022/12/17 20:09:08;;;;;;;;;45.00;36.50;;;;;1.26;61.27;101751.59;6149320;23;45628;-73
2022/12/17 20:11:34;;;;;;;;;36.25;31.50;;;;;1.21;61.47;101760.28;6148718;23;45573;-72
2022/12/17 20:14:10;;;;;;;;;47.50;36.00;;;;;1.18;61.28;101756.03;6147493;23;46464;-73
2022/12/17 20:16:37;;;;;;;;;50.00;34.50;;;;;1.10;61.42;101754.44;6146976;23;47123;-72
2022/12/17 20:19:05;;;;;;;;;37.75;33.25;;;;;1.12;61.50;101758.72;6148167;23;45612;-72
2022/12/17 20:24:52;;;;;;;;;38.75;30.50;;;;;1.07;61.04;101769.97;6146794;23;45559;-72
2022/12/17 20:27:18;;;;;;;;;40.75;33.50;;;;;1.08;60.92;101774.25;6120945;23;46514;-74
2022/12/17 20:29:45;;;;;;;;;36.50;32.25;;;;;1.08;61.08;101782.81;6147202;23;45501;-72
2022/12/17 20:32:11;;;;;;;;;40.25;30.25;;;;;1.04;61.54;101781.16;6148369;23;45455;-73
2022/12/17 20:34:36;;;;;;;;;41.75;35.00;;;;;1.04;61.03;101778.59;6148274;23;46470;-73
2022/12/17 20:37:02;;;;;;;;;32.75;28.75;;;;;0.99;61.19;101776.94;6147638;23;45631;-73
2022/12/17 20:39:27;;;;;;;;;42.33;35.00;;;;;0.88;61.08;101765.91;6148010;23;45501;-76
2022/12/17 20:41:53;;;;;;;;;44.25;34.00;;;;;0.93;61.46;101782.16;6150046;23;45558;-73
2022/12/17 20:44:18;;;;;;;;;43.25;34.50;;;;;0.92;61.04;101785.66;6149226;23;46244;-74
2022/12/17 20:46:43;;;;;;;;;40.00;31.50;;;;;0.92;62.02;101786.47;6148701;23;46946;-72
2022/12/17 20:49:11;;;;;;;;;36.33;28.67;;;;;0.88;61.83;101784.81;6148350;23;45717;-73
2022/12/17 20:54:58;;;;;;;;;30.00;21.50;;;;;0.86;62.32;101784.00;6149348;23;45845;-72
2022/12/17 20:57:23;;;;;;;;;78.33;58.00;;;;;0.83;61.17;101795.19;6148721;23;47183;-71
2022/12/17 20:59:50;;;;;;;;;56.00;49.33;;;;;0.84;61.77;101796.03;6148983;23;45545;-73
2022/12/17 21:02:16;;;;;;;;;51.50;40.25;;;;;0.84;61.23;101803.78;6148753;23;45498;-73
2022/12/17 21:04:41;;;;;;;;;40.00;33.00;;;;;0.83;61.82;101795.19;6149081;23;45498;-72
2022/12/17 21:10:28;;;;;;;;;47.50;34.50;;;;;0.82;61.79;101790.03;6149543;23;45870;-71
2022/12/17 21:15:37;;;;;;;;;51.25;41.00;;;;;0.77;61.83;101784.94;6149480;23;45625;-73
2022/12/17 21:18:03;;;;;;;;;54.50;42.75;;;;;0.82;61.54;101784.88;6149532;23;45923;-72
2022/12/17 21:20:28;;;;;;;;;38.75;33.25;;;;;0.77;62.31;101778.94;6149131;23;46392;-72
2022/12/17 21:22:54;;;;;;;;;45.00;33.00;;;;;0.83;61.72;101804.66;6148565;23;46017;-73
2022/12/17 21:25:19;;;;;;;;;35.00;29.00;;;;;0.83;61.23;101795.19;6150493;23;47012;-74
2022/12/17 21:27:45;;;;;;;;;44.25;33.25;;;;;0.81;62.02;101773.72;6151508;23;45600;-73
2022/12/17 21:30:11;;;;;;;;;43.00;33.50;;;;;0.89;61.35;101783.94;6125041;23;45586;-72
2022/12/17 21:32:37;;;;;;;;;39.75;36.75;;;;;0.91;61.67;101773.63;6148868;23;45512;-73
2022/12/17 21:35:02;;;;;;;;;52.33;43.00;;;;;0.91;61.33;101777.06;6148629;23;46508;-72
2022/12/17 21:40:49;;;;;;;;;47.50;39.00;;;;;0.89;61.69;101763.31;6149525;23;45739;-73
2022/12/17 21:43:15;;;;;;;;;49.33;33.67;;;;;0.94;61.71;101765.81;6148831;23;45569;-73
2022/12/17 21:45:41;;;;;;;;;49.00;43.00;;;;;0.94;61.83;101758.09;6149467;23;45643;-73
2022/12/17 21:48:09;;;;;;;;;49.25;39.00;;;;;0.91;61.20;101761.56;6149109;23;46029;-71
2022/12/17 21:50:39;;;;;;;;;47.00;41.75;;;;;0.90;61.29;101769.31;6149512;23;45475;-73
2022/12/17 21:56:26;;;;;;;;;44.00;35.75;;;;;0.86;61.47;101763.34;6148796;23;46100;-72
2022/12/17 21:58:57;;;;;;;;;40.25;33.50;;;;;0.81;61.05;101750.50;6148629;23;47111;-72
2022/12/17 22:01:26;;;;;;;;;46.50;31.50;;;;;0.78;61.42;101747.97;6150997;23;45503;-71
2022/12/17 22:03:53;;;;;;;;;38.50;29.75;;;;;0.75;61.49;101735.13;6150936;23;45471;-72
2022/12/17 22:06:21;;;;;;;;;36.75;31.50;;;;;0.67;61.76;101720.59;6149698;23;47313;-71
2022/12/17 22:08:46;;;;;;;;;55.25;38.25;;;;;0.71;61.95;101745.47;6149425;23;46928;-72
2022/12/17 22:11:15;;;;;;;;;39.25;35.00;;;;;0.69;60.93;101752.41;6149351;23;45649;-74
2022/12/17 22:16:30;;;;;;;;;28.00;27.00;;;;;0.54;62.02;101727.63;6149577;23;46003;-72
2022/12/17 22:18:58;;;;;;;;;40.25;31.25;;;;;0.59;61.50;101737.91;6149185;23;47267;-73
2022/12/17 22:21:23;;;;;;;;;39.00;33.75;;;;;0.56;62.06;101741.38;6149241;23;45684;-73
2022/12/17 22:23:49;;;;;;;;;35.00;29.00;;;;;0.50;61.79;101736.28;6148681;23;45728;-72
2022/12/17 22:26:16;;;;;;;;;46.50;40.50;;;;;0.51;61.95;101744.88;6148373;23;46389;-73
2022/12/17 22:28:47;;;;;;;;;68.50;57.00;;;;;0.43;62.14;101738.06;6148908;23;46410;-72
2022/12/17 22:33:57;;;;;;;;;48.50;36.75;;;;;0.45;62.35;101739.78;6149095;23;45673;-73
2022/12/17 22:36:27;;;;;;;;;37.75;32.25;;;;;0.36;62.36;101717.56;6149837;23;45524;-71
2022/12/17 22:44:57;;;;;;;;;30.75;26.00;;;;;0.28;62.82;101735.66;6149657;23;45550;-71
2022/12/17 22:47:23;;;;;;;;;33.25;27.00;;;;;0.23;62.46;101726.28;6149358;23;46310;-72
2022/12/17 22:49:48;;;;;;;;;43.50;34.00;;;;;0.18;62.67;101741.78;6151531;23;45620;-73
2022/12/17 22:52:14;;;;;;;;;39.75;31.25;;;;;0.13;62.93;101733.25;6150447;23;45736;-71
2022/12/17 22:54:39;;;;;;;;;33.75;28.50;;;;;0.12;62.56;101733.25;6149998;23;45485;-72
2022/12/17 22:57:04;;;;;;;;;27.75;25.25;;;;;0.06;62.71;101731.59;6121805;23;47211;-72
2022/12/17 22:59:30;;;;;;;;;41.50;29.50;;;;;0.06;62.85;101731.59;6122412;23;47163;-73
2022/12/17 23:01:55;;;;;;;;;44.75;35.50;;;;;0.03;63.25;101733.34;6147097;23;45608;-72
2022/12/17 23:04:21;;;;;;;;;40.50;34.00;;;;;0.00;62.48;101724.78;6148740;23;45514;-73
2022/12/17 23:06:46;;;;;;;;;35.00;28.50;;;;;-0.09;62.33;101698.28;6149408;23;46566;-72
2022/12/17 23:15:32;;;;;;;;;35.50;24.50;;;;;-0.07;62.64;101717.16;6148395;23;45610;-73
2022/12/17 23:18:00;;;;;;;;;28.50;25.25;;;;;-0.16;63.26;101702.63;6148018;23;46777;-72
2022/12/17 23:20:29;;;;;;;;;39.00;32.00;;;;;-0.12;63.36;101704.31;6149022;23;45906;-71
2022/12/17 23:22:54;;;;;;;;;45.50;35.50;;;;;-0.12;63.04;101711.19;6148244;23;45578;-71
2022/12/17 23:25:21;;;;;;;;;41.00;35.75;;;;;-0.15;62.71;101703.47;6148244;23;45713;-73
2022/12/17 23:27:47;;;;;;;;;37.25;33.50;;;;;-0.15;63.63;101703.47;6148103;23;47237;-72
2022/12/17 23:30:14;;;;;;;;;43.00;35.00;;;;;-0.29;63.37;101677.88;6148394;23;46567;-72
2022/12/17 23:32:39;;;;;;;;;37.75;28.50;;;;;-0.19;63.43;101696.66;6148359;23;45471;-72
2022/12/17 23:35:06;;;;;;;;;36.50;27.75;;;;;-0.19;63.16;101706.97;6148725;23;45962;-72
2022/12/17 23:37:31;;;;;;;;;37.25;31.50;;;;;-0.20;63.10;101702.66;6147931;23;47641;-72
2022/12/17 23:39:57;;;;;;;;;34.50;27.50;;;;;-0.22;63.52;101701.84;6148177;23;45903;-72
2022/12/17 23:42:22;;;;;;;;;44.25;37.75;;;;;-0.23;63.08;101694.97;6149108;23;45652;-72
2022/12/17 23:44:47;;;;;;;;;36.00;29.50;;;;;-0.29;63.09;101690.75;6150630;23;45525;-73
2022/12/17 23:47:13;;;;;;;;;47.67;33.00;;;;;-0.24;63.52;101706.16;6148454;23;46623;-71
2022/12/17 23:49:38;;;;;;;;;38.75;32.00;;;;;-0.32;63.10;101688.19;6148483;23;46081;-72
2022/12/17 23:52:04;;;;;;;;;38.25;32.25;;;;;-0.26;63.57;101702.72;6148222;23;45548;-73
2022/12/17 23:57:55;;;;;;;;;40.75;32.75;;;;;-0.30;63.62;101701.91;6148598;23;45510;-73
